createdAt,value
2023-01-17T00:02:21.381Z,97702.56
2023-01-17T00:04:51.940Z,97688.38
2023-01-17T00:07:24.739Z,97691.41
2023-01-17T00:10:01.579Z,97685.25
2023-01-17T00:12:31.833Z,97708.63
2023-01-17T00:15:01.786Z,97698.22
2023-01-17T00:17:33.151Z,97712.78
2023-01-17T00:20:03.399Z,97712.78
2023-01-17T00:22:42.567Z,97720.41
2023-01-17T00:25:32.613Z,97725.78
2023-01-17T00:28:03.099Z,97728.81
2023-01-17T00:30:30.461Z,97726.47
2023-01-17T00:33:03.725Z,97709.16
2023-01-17T00:35:32.015Z,97702.19
2023-01-17T00:38:06.753Z,97706.75
2023-01-17T00:40:40.200Z,97717.09
2023-01-17T00:43:16.029Z,97727.81
2023-01-17T00:45:47.845Z,97730.06
2023-01-17T00:48:14.975Z,97730.41
2023-01-17T00:50:42.036Z,97732.31
2023-01-17T00:53:09.206Z,97736.13
2023-01-17T00:55:36.362Z,97738.37
2023-01-17T00:58:10.435Z,97731.44
2023-01-17T01:00:40.296Z,97725.62
2023-01-17T01:03:15.437Z,97725.97
2023-01-17T01:05:42.583Z,97724.06
2023-01-17T01:08:27.923Z,97721.75
2023-01-17T01:10:58.206Z,97722.84
2023-01-17T01:13:30.588Z,97712.09
2023-01-17T01:16:01.330Z,97707.87
2023-01-17T01:18:32.560Z,97697.50
2023-01-17T01:21:03.981Z,97713.16
2023-01-17T01:23:35.237Z,97713.16
2023-01-17T01:26:07.410Z,97718.09
2023-01-17T01:28:34.787Z,97721.87
2023-01-17T01:31:11.371Z,97711.12
2023-01-17T01:33:41.903Z,97713.41
2023-01-17T01:36:16.184Z,97717.22
2023-01-17T01:38:46.719Z,97714.84
2023-01-17T01:41:17.015Z,97708.72
2023-01-17T01:43:55.976Z,97710.97
2023-01-17T01:46:42.148Z,97707.50
2023-01-17T01:49:22.345Z,97707.84
2023-01-17T01:52:01.762Z,97700.91
2023-01-17T01:54:40.317Z,97699.37
2023-01-17T01:57:10.370Z,97699.37
2023-01-17T01:59:48.257Z,97695.88
2023-01-17T02:02:22.003Z,97692.41
2023-01-17T02:04:50.090Z,97688.19
2023-01-17T02:07:29.880Z,97691.22
2023-01-17T02:10:00.213Z,97698.50
2023-01-17T02:12:33.176Z,97700.72
2023-01-17T02:15:06.140Z,97689.22
2023-01-17T02:17:44.669Z,97690.78
2023-01-17T02:20:34.738Z,97694.22
2023-01-17T02:23:45.605Z,97691.91
2023-01-17T02:26:40.055Z,97696.03
2023-01-17T02:29:41.868Z,97710.59
2023-01-17T02:32:18.742Z,97710.59
2023-01-17T02:34:52.411Z,97711.72
2023-01-17T02:38:11.581Z,97702.09
2023-01-17T02:41:18.236Z,97715.84
2023-01-17T02:43:54.585Z,97715.84
2023-01-17T02:46:31.522Z,97718.88
2023-01-17T02:49:01.866Z,97713.53
2023-01-17T02:51:47.210Z,97717.31
2023-01-17T02:54:51.164Z,97715.75
2023-01-17T02:57:51.221Z,97714.19
2023-01-17T03:00:37.853Z,97711.88
2023-01-17T03:03:13.920Z,97719.09
2023-01-17T03:05:55.558Z,97720.22
2023-01-17T03:08:23.894Z,97720.22
2023-01-17T03:10:54.264Z,97724.03
2023-01-17T03:13:25.439Z,97720.91
2023-01-17T03:15:52.975Z,97723.94
2023-01-17T03:18:26.536Z,97716.66
2023-01-17T03:21:02.217Z,97723.94
2023-01-17T03:23:29.767Z,97731.53
2023-01-17T03:26:00.349Z,97724.63
2023-01-17T03:28:31.859Z,97728.44
2023-01-17T03:31:01.988Z,97731.47
2023-01-17T03:33:32.467Z,97736.81
2023-01-17T03:36:00.946Z,97740.59
2023-01-17T03:38:33.925Z,97747.56
2023-01-17T03:41:04.781Z,97751.34
2023-01-17T03:43:35.486Z,97762.06
2023-01-17T03:46:18.471Z,97759.72
2023-01-17T03:48:54.608Z,97757.41
2023-01-17T03:51:28.664Z,97764.31
2023-01-17T03:54:02.049Z,97756.94
2023-01-17T03:56:32.861Z,97750.03
2023-01-17T03:59:03.767Z,97757.28
2023-01-17T04:01:36.618Z,97761.84
2023-01-17T04:04:07.325Z,97772.94
2023-01-17T04:06:37.802Z,97767.22
2023-01-17T04:09:08.207Z,97778.28
2023-01-17T04:11:38.302Z,97778.66
2023-01-17T04:14:11.854Z,97771.69
2023-01-17T04:16:39.961Z,97773.94
2023-01-17T04:19:16.043Z,97779.31
2023-01-17T04:21:53.230Z,97780.75
2023-01-17T04:24:29.183Z,97776.16
2023-01-17T04:26:59.643Z,97770.03
2023-01-17T04:29:29.792Z,97774.63
2023-01-17T04:31:57.089Z,97781.09
2023-01-17T04:34:30.149Z,97789.16
2023-01-17T04:36:56.963Z,97794.03
2023-01-17T04:39:25.088Z,97801.44
2023-01-17T04:41:52.222Z,97794.84
2023-01-17T04:44:25.803Z,97793.59
2023-01-17T04:46:56.710Z,97794.38
2023-01-17T04:49:23.817Z,97795.81
2023-01-17T04:51:56.108Z,97785.88
2023-01-17T04:54:29.806Z,97792.34
2023-01-17T04:56:56.858Z,97787.34
2023-01-17T04:59:31.010Z,97787.34
2023-01-17T05:02:03.847Z,97786.88
2023-01-17T05:04:31.375Z,97784.97
2023-01-17T05:07:00.125Z,97780.75
2023-01-17T05:09:27.896Z,97779.97
2023-01-17T05:12:06.889Z,97782.66
2023-01-17T05:14:34.918Z,97767.69
2023-01-17T05:17:05.385Z,97770.38
2023-01-17T05:19:32.475Z,97771.50
2023-01-17T05:22:02.585Z,97775.72
2023-01-17T05:24:39.410Z,97781.41
2023-01-17T05:27:06.732Z,97787.59
2023-01-17T05:29:33.962Z,97804.44
2023-01-17T05:32:01.612Z,97815.94
2023-01-17T05:34:33.292Z,97825.53
2023-01-17T05:37:06.576Z,97829.34
2023-01-17T05:39:33.838Z,97836.28
2023-01-17T05:42:01.309Z,97843.97
2023-01-17T05:44:28.466Z,97857.06
2023-01-17T05:46:59.096Z,97863.19
2023-01-17T05:49:27.241Z,97867.44
2023-01-17T05:51:55.050Z,97871.66
2023-01-17T05:54:22.466Z,97877.03
2023-01-17T05:56:49.664Z,97891.69
2023-01-17T05:59:28.727Z,97903.19
2023-01-17T06:02:06.564Z,97894.38
2023-01-17T06:04:37.162Z,97898.59
2023-01-17T06:07:05.141Z,97907.13
2023-01-17T06:09:39.229Z,97907.13
2023-01-17T06:12:09.676Z,97903.34
2023-01-17T06:14:43.974Z,97907.56
2023-01-17T06:17:11.151Z,97908.03
2023-01-17T06:19:44.920Z,97900.41
2023-01-17T06:22:13.155Z,97903.09
2023-01-17T06:24:40.579Z,97912.37
2023-01-17T06:27:12.710Z,97910.47
2023-01-17T06:29:46.250Z,97928.94
2023-01-17T06:32:14.282Z,97936.53
2023-01-17T06:34:44.780Z,97932.72
2023-01-17T06:37:18.347Z,97945.03
2023-01-17T06:39:48.522Z,97942.00
2023-01-17T06:42:23.474Z,97942.47
2023-01-17T06:44:56.555Z,97938.19
2023-01-17T06:47:23.557Z,97945.59
2023-01-17T06:49:53.835Z,97946.38
2023-01-17T06:52:20.957Z,97949.16
2023-01-17T06:54:50.771Z,97934.19
2023-01-17T06:57:17.973Z,97942.66
2023-01-17T06:59:48.271Z,97943.13
2023-01-17T07:02:19.583Z,97950.84
2023-01-17T07:04:46.607Z,97948.94
2023-01-17T07:07:51.350Z,97956.31
2023-01-17T07:10:22.107Z,97964.81
2023-01-17T07:13:27.129Z,97973.75
2023-01-17T07:16:03.293Z,97971.19
2023-01-17T07:18:33.548Z,97964.47
2023-01-17T07:21:03.970Z,97973.09
2023-01-17T07:24:11.942Z,97969.41
2023-01-17T07:26:39.296Z,97978.66
2023-01-17T07:29:13.170Z,97972.63
2023-01-17T07:31:46.051Z,97967.25
2023-01-17T07:34:19.114Z,97971.19
2023-01-17T07:36:46.016Z,97971.97
2023-01-17T07:39:13.485Z,97972.75
2023-01-17T07:41:40.745Z,97975.41
2023-01-17T07:44:11.042Z,97991.22
2023-01-17T07:46:44.800Z,98009.66
2023-01-17T07:49:12.862Z,98006.63
2023-01-17T07:51:43.309Z,98008.97
2023-01-17T07:54:16.820Z,98003.28
2023-01-17T07:56:49.428Z,98009.09
2023-01-17T07:59:16.712Z,98012.22
2023-01-17T08:01:46.709Z,98020.72
2023-01-17T08:04:16.906Z,98034.59
2023-01-17T08:06:49.830Z,98048.47
2023-01-17T08:09:19.254Z,98055.41
2023-01-17T08:11:55.314Z,98063.09
2023-01-17T08:14:22.156Z,98058.50
2023-01-17T08:16:51.834Z,98057.87
2023-01-17T08:19:21.843Z,98053.75
2023-01-17T08:21:51.969Z,98064.13
2023-01-17T08:24:25.248Z,98065.72
2023-01-17T08:26:58.947Z,98067.16
2023-01-17T08:29:25.878Z,98074.88
2023-01-17T08:31:56.448Z,98073.78
2023-01-17T08:34:28.967Z,98072.66
2023-01-17T08:36:55.904Z,98069.19
2023-01-17T08:39:22.872Z,98070.41
2023-01-17T08:41:52.768Z,98062.34
2023-01-17T08:44:22.864Z,98060.13
2023-01-17T08:46:53.356Z,98055.88
2023-01-17T08:49:20.392Z,98056.66
2023-01-17T08:52:10.671Z,98064.72
2023-01-17T08:55:16.079Z,98073.53
2023-01-17T08:57:43.225Z,98072.00
2023-01-17T09:00:30.657Z,98077.38
2023-01-17T09:03:06.928Z,98077.38
2023-01-17T09:05:34.825Z,98083.50
2023-01-17T09:08:09.273Z,98083.84
2023-01-17T09:10:39.916Z,98087.63
2023-01-17T09:13:07.785Z,98094.91
2023-01-17T09:15:38.956Z,98100.72
2023-01-17T09:18:15.305Z,98110.37
2023-01-17T09:20:43.843Z,98104.66
2023-01-17T09:23:17.296Z,98108.13
2023-01-17T09:25:56.057Z,98107.81
2023-01-17T09:28:23.655Z,98106.66
2023-01-17T09:30:54.104Z,98116.28
2023-01-17T09:33:21.874Z,98122.12
2023-01-17T09:35:52.773Z,98125.25
2023-01-17T09:38:26.242Z,98121.09
2023-01-17T09:40:59.103Z,98107.12
2023-01-17T09:43:54.561Z,98103.53
2023-01-17T09:46:43.078Z,98096.13
2023-01-17T09:49:49.408Z,98079.06
2023-01-17T09:52:27.800Z,98073.34
2023-01-17T09:55:00.331Z,98069.66
2023-01-17T09:57:45.256Z,98061.34
2023-01-17T10:00:35.238Z,98059.09
2023-01-17T10:03:44.303Z,98054.94
2023-01-17T10:06:29.429Z,98055.41
2023-01-17T10:09:29.760Z,98054.28
2023-01-17T10:12:13.992Z,98044.28
2023-01-17T10:14:47.933Z,98024.78
2023-01-17T10:17:41.599Z,98006.41
2023-01-17T10:20:26.899Z,98009.53
2023-01-17T10:23:18.278Z,97999.56
2023-01-17T10:25:51.727Z,97988.03
2023-01-17T10:28:21.703Z,97983.09
2023-01-17T10:31:00.009Z,97980.41
2023-01-17T10:33:55.763Z,97978.19
2023-01-17T10:36:27.932Z,97968.19
2023-01-17T10:39:02.210Z,97970.53
2023-01-17T10:41:37.332Z,97967.50
2023-01-17T10:44:27.520Z,97977.91
2023-01-17T10:47:20.393Z,97976.78
2023-01-17T10:49:53.410Z,97974.53
2023-01-17T10:52:41.012Z,97976.88
2023-01-17T10:55:26.083Z,97995.38
2023-01-17T10:57:54.092Z,97985.41
2023-01-17T11:00:54.573Z,97976.19
2023-01-17T11:03:21.309Z,97986.19
2023-01-17T11:06:16.156Z,97987.72
2023-01-17T11:08:56.245Z,97986.19
2023-01-17T11:11:34.844Z,97988.87
2023-01-17T11:14:07.248Z,97975.84
2023-01-17T11:16:37.261Z,97969.34
2023-01-17T11:19:28.535Z,97959.37
2023-01-17T11:22:05.960Z,97966.75
2023-01-17T11:24:35.541Z,97972.91
2023-01-17T11:27:05.513Z,97979.84
2023-01-17T11:29:42.501Z,97966.41
2023-01-17T11:32:21.347Z,97966.41
2023-01-17T11:35:09.861Z,97957.87
2023-01-17T11:37:50.957Z,97949.41
2023-01-17T11:40:32.938Z,97949.41
2023-01-17T11:43:06.558Z,97946.25
2023-01-17T11:45:37.174Z,97932.38
2023-01-17T11:48:09.650Z,97923.09
2023-01-17T11:50:58.679Z,97913.81
2023-01-17T11:53:32.130Z,97912.25
2023-01-17T11:56:10.323Z,97907.22
2023-01-17T11:58:42.885Z,97910.28
2023-01-17T12:01:32.633Z,97908.69
2023-01-17T12:04:21.636Z,97901.34
2023-01-17T12:07:39.863Z,97887.41
2023-01-17T12:10:23.378Z,97869.72
2023-01-17T12:13:16.302Z,97869.72
2023-01-17T12:16:01.228Z,97867.37
2023-01-17T12:18:50.542Z,97875.00
2023-01-17T12:21:48.642Z,97867.28
2023-01-17T12:24:26.132Z,97874.91
2023-01-17T12:26:55.779Z,97862.62
2023-01-17T12:29:37.807Z,97849.50
2023-01-17T12:32:51.608Z,97848.72
2023-01-17T12:35:26.280Z,97851.00
2023-01-17T12:38:11.421Z,97847.84
2023-01-17T12:41:11.717Z,97849.00
2023-01-17T12:43:40.952Z,97844.75
2023-01-17T12:46:14.297Z,97855.06
2023-01-17T12:48:51.727Z,97842.75
2023-01-17T12:51:43.254Z,97848.38
2023-01-17T12:54:21.660Z,97850.63
2023-01-17T12:56:58.301Z,97852.19
2023-01-17T12:59:35.109Z,97849.06
2023-01-17T13:02:25.558Z,97850.63
2023-01-17T13:05:10.926Z,97846.81
2023-01-17T13:07:59.628Z,97841.44
2023-01-17T13:10:32.101Z,97844.47
2023-01-17T13:13:14.995Z,97829.13
2023-01-17T13:15:44.037Z,97829.13
2023-01-17T13:18:17.183Z,97832.94
2023-01-17T13:21:12.241Z,97826.78
2023-01-17T13:23:47.808Z,97829.81
2023-01-17T13:26:43.242Z,97812.56
2023-01-17T13:29:28.283Z,97812.91
2023-01-17T13:32:19.422Z,97797.16
2023-01-17T13:35:01.687Z,97785.53
2023-01-17T13:37:56.476Z,97778.94
2023-01-17T13:40:52.764Z,97762.81
2023-01-17T13:43:34.390Z,97748.16
2023-01-17T13:46:08.369Z,97737.41
2023-01-17T13:48:40.060Z,97730.47
2023-01-17T13:51:15.986Z,97731.59
2023-01-17T13:53:52.140Z,97730.06
2023-01-17T13:56:22.492Z,97731.16
2023-01-17T13:58:52.510Z,97724.22
2023-01-17T14:01:22.604Z,97720.00
2023-01-17T14:03:51.218Z,97704.22
2023-01-17T14:06:41.731Z,97699.87
2023-01-17T14:09:08.472Z,97697.19
2023-01-17T14:12:00.592Z,97689.56
2023-01-17T14:14:42.157Z,97684.22
2023-01-17T14:17:20.867Z,97681.16
2023-01-17T14:20:18.407Z,97674.25
2023-01-17T14:22:58.181Z,97668.50
2023-01-17T14:25:38.084Z,97658.91
2023-01-17T14:28:40.281Z,97650.84
2023-01-17T14:31:10.898Z,97647.38
2023-01-17T14:33:42.086Z,97655.06
2023-01-17T14:36:26.100Z,97644.31
2023-01-17T14:38:52.978Z,97649.28
2023-01-17T14:41:27.509Z,97639.69
2023-01-17T14:43:55.694Z,97645.06
2023-01-17T14:46:35.895Z,97645.06
2023-01-17T14:49:06.134Z,97642.69
2023-01-17T14:51:41.299Z,97641.91
2023-01-17T14:54:21.225Z,97625.81
2023-01-17T14:56:50.612Z,97628.03
2023-01-17T14:59:26.728Z,97622.66
2023-01-17T15:02:07.176Z,97621.47
2023-01-17T15:04:35.385Z,97628.31
2023-01-17T15:07:05.293Z,97621.81
2023-01-17T15:09:38.322Z,97614.87
2023-01-17T15:12:08.209Z,97607.97
2023-01-17T15:14:44.898Z,97604.84
2023-01-17T15:17:23.258Z,97596.34
2023-01-17T15:19:59.573Z,97594.72
2023-01-17T15:22:30.088Z,97599.31
2023-01-17T15:25:00.509Z,97596.62
2023-01-17T15:27:29.236Z,97604.69
2023-01-17T15:30:03.317Z,97607.72
2023-01-17T15:32:39.171Z,97609.97
2023-01-17T15:35:06.596Z,97614.13
2023-01-17T15:37:41.624Z,97619.06
2023-01-17T15:40:19.122Z,97617.94
2023-01-17T15:42:59.186Z,97613.69
2023-01-17T15:45:37.958Z,97615.25
2023-01-17T15:48:55.914Z,97618.38
2023-01-17T15:51:38.407Z,97615.34
2023-01-17T15:54:41.126Z,97613.84
2023-01-17T15:57:29.742Z,97617.00
2023-01-17T16:00:14.877Z,97621.22
2023-01-17T16:02:48.863Z,97625.47
2023-01-17T16:05:22.927Z,97627.03
2023-01-17T16:07:52.513Z,97643.16
2023-01-17T16:10:23.801Z,97643.16
2023-01-17T16:12:53.850Z,97643.16
2023-01-17T16:15:22.140Z,97646.63
2023-01-17T16:17:56.415Z,97649.31
2023-01-17T16:20:45.657Z,97655.00
2023-01-17T16:23:19.122Z,97654.22
2023-01-17T16:25:52.207Z,97655.34
2023-01-17T16:28:21.833Z,97659.88
2023-01-17T16:30:53.024Z,97653.72
2023-01-17T16:33:20.486Z,97657.97
2023-01-17T16:35:53.760Z,97664.47
2023-01-17T16:38:24.183Z,97659.09
2023-01-17T16:40:51.043Z,97659.88
2023-01-17T16:43:19.428Z,97655.28
2023-01-17T16:45:48.507Z,97662.19
2023-01-17T16:48:17.711Z,97666.00
2023-01-17T16:50:48.786Z,97660.63
2023-01-17T16:53:21.491Z,97671.38
2023-01-17T16:55:51.775Z,97669.06
2023-01-17T16:58:21.403Z,97673.66
2023-01-17T17:00:51.398Z,97670.53
2023-01-17T17:03:20.363Z,97668.59
2023-01-17T17:05:55.538Z,97666.28
2023-01-17T17:08:28.541Z,97663.59
2023-01-17T17:11:15.724Z,97655.09
2023-01-17T17:13:47.666Z,97655.88
2023-01-17T17:16:26.323Z,97650.50
2023-01-17T17:19:01.281Z,97642.31
2023-01-17T17:21:29.211Z,97623.53
2023-01-17T17:23:57.694Z,97608.56
2023-01-17T17:26:30.439Z,97591.31
2023-01-17T17:29:01.395Z,97574.44
2023-01-17T17:31:28.656Z,97569.53
2023-01-17T17:34:04.169Z,97557.66
2023-01-17T17:36:34.395Z,97532.97
2023-01-17T17:39:07.305Z,97529.13
2023-01-17T17:41:44.499Z,97531.81
2023-01-17T17:44:18.280Z,97523.78
2023-01-17T17:46:45.293Z,97529.56
2023-01-17T17:49:15.636Z,97530.69
2023-01-17T17:51:42.875Z,97531.47
2023-01-17T17:54:14.806Z,97528.91
2023-01-17T17:56:42.633Z,97520.50
2023-01-17T17:59:10.059Z,97514.78
2023-01-17T18:01:40.549Z,97516.31
2023-01-17T18:04:10.684Z,97515.63
2023-01-17T18:06:37.607Z,97521.00
2023-01-17T18:09:10.465Z,97501.06
2023-01-17T18:11:42.974Z,97489.22
2023-01-17T18:14:16.441Z,97471.19
2023-01-17T18:16:48.548Z,97476.22
2023-01-17T18:19:25.944Z,97496.56
2023-01-17T18:21:58.629Z,97499.69
2023-01-17T18:24:41.973Z,97494.31
2023-01-17T18:27:28.458Z,97495.09
2023-01-17T18:29:55.705Z,97478.59
2023-01-17T18:32:26.111Z,97480.97
2023-01-17T18:34:59.732Z,97464.06
2023-01-17T18:37:27.577Z,97456.00
2023-01-17T18:39:57.658Z,97446.81
2023-01-17T18:42:30.710Z,97457.56
2023-01-17T18:45:01.680Z,97459.09
2023-01-17T18:47:36.816Z,97452.59
2023-01-17T18:50:05.680Z,97439.59
2023-01-17T18:52:34.011Z,97431.56
2023-01-17T18:55:01.422Z,97420.81
2023-01-17T18:57:34.988Z,97407.78
2023-01-17T19:00:03.440Z,97399.72
2023-01-17T19:02:33.543Z,97395.94
2023-01-17T19:05:03.735Z,97405.53
2023-01-17T19:07:34.513Z,97390.97
2023-01-17T19:10:05.103Z,97391.34
2023-01-17T19:12:32.344Z,97407.09
2023-01-17T19:15:02.679Z,97416.72
2023-01-17T19:17:32.887Z,97416.72
2023-01-17T19:20:03.085Z,97397.13
2023-01-17T19:22:36.553Z,97390.97
2023-01-17T19:25:06.710Z,97394.09
2023-01-17T19:27:36.518Z,97393.72
2023-01-17T19:30:06.671Z,97392.25
2023-01-17T19:32:36.059Z,97389.56
2023-01-17T19:35:05.617Z,97379.59
2023-01-17T19:37:33.483Z,97370.75
2023-01-17T19:40:00.548Z,97375.00
2023-01-17T19:42:33.133Z,97384.59
2023-01-17T19:45:00.239Z,97380.78
2023-01-17T19:47:31.006Z,97380.44
2023-01-17T19:49:58.272Z,97391.94
2023-01-17T19:52:33.514Z,97382.75
2023-01-17T19:55:00.889Z,97381.28
2023-01-17T19:57:38.462Z,97382.03
2023-01-17T20:00:08.441Z,97381.28
2023-01-17T20:02:40.999Z,97376.66
2023-01-17T20:05:14.416Z,97371.28
2023-01-17T20:07:44.797Z,97365.53
2023-01-17T20:10:15.314Z,97364.37
2023-01-17T20:12:46.291Z,97360.16
2023-01-17T20:15:16.991Z,97358.56
2023-01-17T20:17:50.054Z,97348.19
2023-01-17T20:20:17.229Z,97348.97
2023-01-17T20:22:48.665Z,97342.06
2023-01-17T20:25:15.906Z,97343.59
2023-01-17T20:27:44.703Z,97342.06
2023-01-17T20:30:20.502Z,97344.31
2023-01-17T20:32:54.151Z,97343.53
2023-01-17T20:35:27.901Z,97343.53
2023-01-17T20:37:55.591Z,97331.25
2023-01-17T20:40:29.072Z,97331.25
2023-01-17T20:42:59.413Z,97335.06
2023-01-17T20:45:30.259Z,97335.06
2023-01-17T20:48:00.398Z,97323.53
2023-01-17T20:50:36.902Z,97318.50
2023-01-17T20:53:03.999Z,97315.06
2023-01-17T20:55:33.832Z,97316.59
2023-01-17T20:58:04.968Z,97324.66
2023-01-17T21:00:32.246Z,97320.41
2023-01-17T21:03:05.856Z,97315.06
2023-01-17T21:05:42.122Z,97308.13
2023-01-17T21:08:12.109Z,97320.03
2023-01-17T21:10:49.182Z,97315.06
2023-01-17T21:13:16.634Z,97311.97
2023-01-17T21:15:46.844Z,97313.50
2023-01-17T21:18:15.062Z,97321.91
2023-01-17T21:20:42.497Z,97338.81
2023-01-17T21:23:18.978Z,97339.94
2023-01-17T21:26:01.648Z,97339.16
2023-01-17T21:28:31.858Z,97329.56
2023-01-17T21:31:07.771Z,97335.69
2023-01-17T21:33:41.262Z,97326.88
2023-01-17T21:36:09.162Z,97333.37
2023-01-17T21:38:37.256Z,97328.78
2023-01-17T21:41:09.735Z,97321.84
2023-01-17T21:43:40.422Z,97318.37
2023-01-17T21:46:07.647Z,97321.84
2023-01-17T21:48:34.831Z,97320.28
2023-01-17T21:51:08.971Z,97331.03
2023-01-17T21:53:46.276Z,97317.97
2023-01-17T21:56:17.322Z,97317.19
2023-01-17T21:58:48.301Z,97326.03
2023-01-17T22:01:17.133Z,97317.19
2023-01-17T22:03:58.517Z,97314.84
2023-01-17T22:06:31.890Z,97312.94
2023-01-17T22:09:02.449Z,97316.75
2023-01-17T22:11:36.047Z,97334.78
2023-01-17T22:14:09.616Z,97328.66
2023-01-17T22:16:42.273Z,97338.63
2023-01-17T22:19:09.805Z,97341.63
2023-01-17T22:21:37.086Z,97335.16
2023-01-17T22:24:12.875Z,97343.56
2023-01-17T22:26:46.837Z,97329.34
2023-01-17T22:29:20.146Z,97327.81
2023-01-17T22:31:51.830Z,97319.75
2023-01-17T22:34:21.913Z,97311.69
2023-01-17T22:36:53.414Z,97304.78
2023-01-17T22:39:23.915Z,97306.66
2023-01-17T22:41:54.040Z,97311.25
2023-01-17T22:44:29.940Z,97314.72
2023-01-17T22:47:00.805Z,97299.41
2023-01-17T22:49:34.335Z,97293.28
2023-01-17T22:52:04.189Z,97297.97
2023-01-17T22:54:36.752Z,97304.19
2023-01-17T22:57:04.050Z,97303.47
2023-01-17T22:59:31.052Z,97300.06
2023-01-17T23:02:01.005Z,97303.59
2023-01-17T23:04:31.464Z,97309.03
2023-01-17T23:07:03.954Z,97307.53
2023-01-17T23:09:34.963Z,97321.78
2023-01-17T23:12:12.380Z,97335.66
2023-01-17T23:14:42.495Z,97335.28
2023-01-17T23:17:12.731Z,97323.84
2023-01-17T23:19:50.623Z,97318.91
2023-01-17T23:22:25.691Z,97306.22
2023-01-17T23:25:12.266Z,97294.78
2023-01-17T23:27:48.393Z,97296.31
2023-01-17T23:30:27.362Z,97279.81
2023-01-17T23:33:00.246Z,97274.13
2023-01-17T23:35:30.040Z,97269.50
2023-01-17T23:38:00.800Z,97271.81
2023-01-17T23:40:32.268Z,97269.56
2023-01-17T23:43:03.448Z,97281.09
2023-01-17T23:45:45.231Z,97287.25
2023-01-17T23:48:16.030Z,97283.41
2023-01-17T23:50:48.330Z,97258.06
2023-01-17T23:53:24.294Z,97255.38
2023-01-17T23:55:57.025Z,97290.38
2023-01-17T23:58:30.241Z,97301.91
